Time;durP1;ratioP1;P1;durP2;ratioP2;P2;SDS_P1;SDS_P2;PMS_P1;PMS_P2;Temp;Humidity;BMP_temperature;BMP_pressure;BME280_temperature;BME280_humidity;BME280_pressure;Samples;Min_cycle;Max_cycle;Signal;HPM_P1;HPM_P2
2023/03/02 00:00:14;;;;;;;1.52;1.42;;;;;;;2.20;74.63;100229.50;4901084;29;20131;-64
2023/03/02 00:02:44;;;;;;;2.00;1.90;;;;;;;2.19;74.84;100220.19;4901233;29;20048;-63
2023/03/02 00:05:13;;;;;;;1.95;1.85;;;;;;;2.17;74.68;100222.66;4900725;29;20044;-64
2023/03/02 00:07:42;;;;;;;1.65;1.55;;;;;;;2.13;74.98;100225.88;4900730;29;20110;-64
2023/03/02 00:10:12;;;;;;;2.63;2.03;;;;;;;2.13;75.15;100215.81;4900629;29;20131;-64
2023/03/02 00:12:41;;;;;;;8.48;3.67;;;;;;;2.15;75.13;100216.72;4900454;29;20496;-63
2023/03/02 00:15:12;;;;;;;1.42;1.33;;;;;;;2.15;74.82;100221.75;4900550;29;20052;-64
2023/03/02 00:17:41;;;;;;;5.20;1.85;;;;;;;2.16;74.97;100223.44;4899664;29;20049;-64
2023/03/02 00:20:11;;;;;;;2.53;2.33;;;;;;;2.18;74.42;100223.53;4900442;29;20045;-64
2023/03/02 00:22:43;;;;;;;2.80;2.53;;;;;;;2.12;74.77;100223.25;4899716;29;20048;-64
2023/03/02 00:25:14;;;;;;;3.47;3.22;;;;;;;2.11;74.64;100219.91;4900499;29;20049;-63
2023/03/02 00:27:43;;;;;;;1.00;0.73;;;;;;;2.05;74.56;100214.63;4900624;29;20063;-64
2023/03/02 00:30:14;;;;;;;2.78;2.55;;;;;;;2.09;74.71;100224.00;4900530;29;20049;-64
2023/03/02 00:32:44;;;;;;;1.92;1.80;;;;;;;2.14;74.91;100227.56;4900328;29;20117;-63
2023/03/02 00:35:13;;;;;;;1.33;1.23;;;;;;;2.15;74.80;100219.22;4900219;29;20139;-64
2023/03/02 00:37:42;;;;;;;4.75;3.78;;;;;;;2.12;74.48;100223.25;4900158;29;20433;-64
2023/03/02 00:40:11;;;;;;;2.03;1.83;;;;;;;2.11;74.15;100217.41;4900357;29;20088;-64
2023/03/02 00:42:40;;;;;;;0.40;0.40;;;;;;;2.10;74.35;100210.63;4900144;29;20049;-64
2023/03/02 00:45:09;;;;;;;3.63;3.35;;;;;;;2.07;74.17;100205.47;4900231;29;20072;-64
2023/03/02 00:47:40;;;;;;;1.30;1.20;;;;;;;2.01;74.24;100202.72;4898768;29;20059;-64
2023/03/02 00:50:11;;;;;;;9.68;2.35;;;;;;;2.00;74.17;100208.53;4899866;29;20112;-63
2023/03/02 00:52:39;;;;;;;;;;;;;;;1.98;74.75;100205.97;4900532;29;20554;-63
2023/03/02 00:55:09;;;;;;;0.75;0.75;;;;;;;1.93;74.09;100196.50;4899760;29;19959;-64
2023/03/02 00:57:37;;;;;;;;;;;;;;;1.88;74.14;100200.47;4900385;29;20052;-63
2023/03/02 01:00:08;;;;;;;0.50;0.50;;;;;;;1.85;74.63;100188.63;4899702;29;20396;-64
2023/03/02 01:02:42;;;;;;;1.77;1.50;;;;;;;1.85;74.43;100190.25;4899672;29;20067;-64
2023/03/02 01:05:16;;;;;;;1.20;1.15;;;;;;;1.80;74.77;100180.00;4898435;29;20041;-64
2023/03/02 01:07:45;;;;;;;0.75;0.75;;;;;;;1.78;75.15;100185.78;4899593;29;20488;-64
2023/03/02 01:10:14;;;;;;;3.67;3.10;;;;;;;1.80;74.88;100176.66;4899814;29;20499;-64
2023/03/02 01:12:43;;;;;;;2.80;2.22;;;;;;;1.74;75.06;100176.38;4899719;29;20523;-64
2023/03/02 01:15:12;;;;;;;5.95;2.42;;;;;;;1.66;75.28;100170.16;4899277;29;20045;-64
2023/03/02 01:17:43;;;;;;;2.50;2.30;;;;;;;1.62;75.32;100170.84;4898761;29;20496;-63
2023/03/02 01:20:12;;;;;;;3.92;2.90;;;;;;;1.51;74.72;100170.41;4898226;29;20048;-64
2023/03/02 01:22:43;;;;;;;3.58;3.03;;;;;;;1.50;75.54;100157.75;4899611;29;20059;-64
2023/03/02 01:25:13;;;;;;;1.20;1.15;;;;;;;1.53;75.33;100158.75;4899194;29;20049;-64
2023/03/02 01:27:42;;;;;;;2.55;2.35;;;;;;;1.45;75.79;100164.22;4899475;29;20032;-64
2023/03/02 01:30:12;;;;;;;0.38;0.38;;;;;;;1.44;75.46;100154.97;4899124;29;20124;-64
2023/03/02 01:32:42;;;;;;;1.83;1.73;;;;;;;1.54;75.71;100152.03;4899930;29;20462;-64
2023/03/02 01:35:11;;;;;;;1.83;1.45;;;;;;;1.52;75.18;100156.16;4898802;29;20060;-64
2023/03/02 01:37:40;;;;;;;2.23;2.03;;;;;;;1.44;76.16;100149.94;4897865;29;20128;-64
2023/03/02 01:40:13;;;;;;;2.83;1.73;;;;;;;1.45;76.00;100149.13;4899022;29;20283;-64
2023/03/02 01:42:50;;;;;;;1.23;1.15;;;;;;;1.42;75.57;100144.84;4898134;29;20052;-64
2023/03/02 01:45:41;;;;;;;3.55;2.72;;;;;;;1.35;76.09;100148.75;4898861;29;20496;-64
2023/03/02 01:48:15;;;;;;;3.95;1.48;;;;;;;1.27;76.21;100150.06;4898310;29;20044;-64
2023/03/02 01:50:45;;;;;;;1.58;1.38;;;;;;;1.26;75.92;100155.91;4898029;29;20058;-64
2023/03/02 01:53:15;;;;;;;1.88;1.77;;;;;;;1.20;76.28;100152.28;4897939;29;20376;-64
2023/03/02 01:55:46;;;;;;;2.13;1.92;;;;;;;1.14;75.99;100157.88;4898860;29;20479;-64
2023/03/02 01:58:16;;;;;;;1.67;1.58;;;;;;;1.08;75.82;100147.53;4899062;29;20096;-64
2023/03/02 02:00:45;;;;;;;2.03;1.45;;;;;;;1.02;76.34;100141.41;4898340;29;20131;-64
2023/03/02 02:03:20;;;;;;;3.60;3.30;;;;;;;0.98;76.79;100150.47;4897847;29;20051;-64
2023/03/02 02:05:58;;;;;;;1.05;1.00;;;;;;;0.94;76.77;100146.06;4898676;29;20100;-64
2023/03/02 02:08:28;;;;;;;6.90;3.00;;;;;;;0.88;76.88;100148.31;4898878;29;20571;-64
2023/03/02 02:10:58;;;;;;;0.50;0.50;;;;;;;0.92;77.02;100150.16;4897658;29;20308;-64
2023/03/02 02:13:27;;;;;;;0.70;0.70;;;;;;;1.00;77.16;100143.84;4898862;29;20052;-64
2023/03/02 02:15:56;;;;;;;3.13;2.05;;;;;;;1.06;76.98;100141.59;4898728;29;20045;-64
2023/03/02 02:18:27;;;;;;;0.53;0.53;;;;;;;1.08;76.83;100142.50;4898389;29;20052;-64
2023/03/02 02:20:57;;;;;;;1.52;1.42;;;;;;;1.04;76.88;100140.66;4897362;29;20104;-63
2023/03/02 02:23:27;;;;;;;;;;;;;;;1.11;77.34;100142.66;4898903;29;20068;-64
2023/03/02 02:26:27;;;;;;;1.95;1.85;;;;;;;1.14;76.88;100132.75;4898429;29;20378;-64
2023/03/02 02:29:00;;;;;;;0.40;0.40;;;;;;;1.16;76.86;100136.19;4896723;29;20045;-64
2023/03/02 02:31:36;;;;;;;3.53;3.22;;;;;;;1.14;76.62;100132.75;4898695;29;20079;-64
2023/03/02 02:34:12;;;;;;;1.42;1.33;;;;;;;1.15;76.77;100139.47;4898454;29;20032;-63
2023/03/02 02:36:47;;;;;;;1.85;1.73;;;;;;;1.10;76.34;100130.91;4878525;29;20097;-64
2023/03/02 02:39:23;;;;;;;0.52;0.52;;;;;;;1.13;76.53;100128.50;4879628;29;20053;-63
2023/03/02 02:41:56;;;;;;;2.17;2.08;;;;;;;1.12;76.55;100134.34;4879920;29;20131;-63
2023/03/02 02:44:31;;;;;;;0.45;0.45;;;;;;;1.05;76.42;100119.78;4878749;29;20056;-64
2023/03/02 02:47:00;;;;;;;1.33;1.23;;;;;;;1.06;76.43;100124.00;4879630;29;20049;-63
2023/03/02 02:49:33;;;;;;;1.83;1.40;;;;;;;1.07;76.60;100128.25;4878710;29;20080;-63
2023/03/02 02:52:05;;;;;;;2.13;1.92;;;;;;;1.06;76.41;100124.00;4878394;29;20049;-63
2023/03/02 02:54:35;;;;;;;1.40;1.30;;;;;;;1.07;76.35;100125.72;4879519;29;20087;-63
2023/03/02 02:57:05;;;;;;;9.88;2.60;;;;;;;0.99;76.70;100127.03;4879759;29;20057;-63
2023/03/02 02:59:38;;;;;;;1.15;1.15;;;;;;;0.98;76.93;100130.38;4878242;29;20053;-63
2023/03/02 03:02:15;;;;;;;0.30;0.30;;;;;;;0.99;76.47;100117.00;4879997;29;20064;-64
2023/03/02 03:04:44;;;;;;;2.05;1.58;;;;;;;1.04;76.56;100119.69;4879733;29;20399;-63
2023/03/02 03:07:17;;;;;;;0.30;0.30;;;;;;;1.02;76.93;100117.13;4879729;29;20049;-63
2023/03/02 03:09:49;;;;;;;2.20;1.92;;;;;;;1.02;76.71;100114.63;4879334;29;20122;-63
2023/03/02 03:12:22;;;;;;;5.05;2.55;;;;;;;1.04;76.78;100114.66;4880417;29;20508;-63
2023/03/02 03:14:55;;;;;;;4.22;2.53;;;;;;;1.00;76.34;100112.81;4881959;29;20101;-64
2023/03/02 03:17:24;;;;;;;3.40;1.70;;;;;;;1.02;76.44;100112.09;4883151;29;20168;-64
2023/03/02 03:20:05;;;;;;;2.22;2.05;;;;;;;1.07;76.89;100120.72;4882984;29;20092;-63
2023/03/02 03:22:39;;;;;;;1.55;1.45;;;;;;;1.03;76.79;100116.31;4881881;29;20053;-64
2023/03/02 03:25:14;;;;;;;2.30;1.85;;;;;;;1.06;76.79;100110.56;4883806;29;20395;-63
2023/03/02 03:27:46;;;;;;;1.27;1.20;;;;;;;1.03;76.66;100108.78;4882722;29;20053;-63
2023/03/02 03:30:18;;;;;;;1.95;1.85;;;;;;;1.08;76.76;100102.31;4882645;29;20519;-63
2023/03/02 03:32:47;;;;;;;4.85;4.00;;;;;;;1.10;76.42;100105.78;4882579;29;20053;-63
2023/03/02 03:35:17;;;;;;;;;;;;;;;1.11;76.50;100107.47;4890570;29;20139;-63
2023/03/02 03:37:47;;;;;;;1.57;1.47;;;;;;;1.08;76.18;100106.50;4900266;29;19954;-64
2023/03/02 03:40:18;;;;;;;0.82;0.82;;;;;;;1.06;76.33;100108.91;4901469;29;20637;-63
2023/03/02 03:42:48;;;;;;;0.90;0.90;;;;;;;1.06;76.00;100111.44;4901071;29;20168;-64
2023/03/02 03:45:19;;;;;;;0.93;0.93;;;;;;;1.07;76.43;100103.13;4900240;29;20383;-63
2023/03/02 03:47:47;;;;;;;5.30;3.33;;;;;;;1.11;76.54;100102.44;4901049;29;20052;-63
2023/03/02 03:50:17;;;;;;;20.35;1.77;;;;;;;1.06;76.43;100103.91;4900376;29;20395;-63
2023/03/02 03:52:46;;;;;;;3.10;1.67;;;;;;;1.06;76.00;100100.53;4899916;29;20075;-64
2023/03/02 03:55:28;;;;;;;2.80;1.73;;;;;;;1.06;76.36;100095.50;4899925;29;20068;-63
2023/03/02 03:57:58;;;;;;;1.42;1.33;;;;;;;1.11;76.22;100102.44;4900875;29;20055;-63
2023/03/02 04:00:29;;;;;;;3.90;3.60;;;;;;;1.06;76.22;100098.88;4901096;29;20538;-63
2023/03/02 04:03:05;;;;;;;1.13;1.10;;;;;;;1.08;76.74;100103.97;4901309;29;20403;-63
2023/03/02 04:05:34;;;;;;;1.00;1.00;;;;;;;1.04;76.71;100100.47;4900592;29;20044;-63
2023/03/02 04:08:04;;;;;;;3.10;2.88;;;;;;;1.01;76.50;100102.84;4900726;29;20734;-63
2023/03/02 04:10:34;;;;;;;7.75;3.63;;;;;;;1.01;76.39;100109.53;4900910;29;20053;-64
2023/03/02 04:13:03;;;;;;;1.73;1.55;;;;;;;0.98;76.14;100109.41;4901145;29;20055;-63
2023/03/02 04:15:35;;;;;;;2.63;2.42;;;;;;;0.94;76.67;100112.53;4900762;29;20507;-63
2023/03/02 04:18:04;;;;;;;1.92;1.83;;;;;;;0.90;76.56;100106.53;4899671;29;20049;-63
2023/03/02 04:20:34;;;;;;;5.13;1.92;;;;;;;0.85;77.01;100107.13;4900721;29;20094;-63
2023/03/02 04:23:02;;;;;;;3.53;2.77;;;;;;;0.87;76.64;100108.91;4898930;29;20101;-63
2023/03/02 04:25:31;;;;;;;1.43;1.33;;;;;;;0.91;77.27;100108.25;4899664;29;20045;-63
2023/03/02 04:28:15;;;;;;;3.08;2.88;;;;;;;0.86;76.63;100104.69;4900310;29;20291;-63
2023/03/02 04:30:47;;;;;;;2.67;2.47;;;;;;;0.88;76.77;100108.13;4900310;29;20052;-63
2023/03/02 04:33:16;;;;;;;3.25;3.00;;;;;;;0.92;77.14;100102.44;4899702;29;20055;-64
2023/03/02 04:35:45;;;;;;;1.60;1.50;;;;;;;0.92;76.48;100104.94;4899962;29;20403;-63
2023/03/02 04:38:14;;;;;;;2.97;2.58;;;;;;;0.91;77.29;100108.25;4898987;29;20049;-64
2023/03/02 04:40:44;;;;;;;;;;;;;;;0.98;76.87;100100.22;4900508;29;20045;-63
2023/03/02 04:43:13;;;;;;;;;;;;;;;0.98;77.10;100094.31;4900964;29;19924;-63
2023/03/02 04:45:42;;;;;;;1.52;1.42;;;;;;;0.97;76.92;100093.44;4899905;29;19967;-63
2023/03/02 04:48:12;;;;;;;3.58;3.25;;;;;;;1.02;76.78;100094.50;4899931;29;20089;-63
2023/03/02 04:50:41;;;;;;;1.77;1.67;;;;;;;1.00;76.87;100088.56;4899882;29;20131;-63
2023/03/02 04:53:11;;;;;;;1.47;1.13;;;;;;;1.01;77.08;100080.22;4899865;29;20059;-63
2023/03/02 04:55:40;;;;;;;8.55;2.55;;;;;;;0.98;76.75;100075.09;4900001;29;20503;-64
2023/03/02 04:58:09;;;;;;;2.88;2.65;;;;;;;1.06;76.33;100092.97;4899946;29;20054;-63
2023/03/02 05:00:38;;;;;;;2.63;2.42;;;;;;;1.06;76.73;100087.94;4899696;29;20044;-64
2023/03/02 05:03:07;;;;;;;1.93;1.37;;;;;;;1.07;76.06;100090.56;4899666;29;20045;-63
2023/03/02 05:05:37;;;;;;;2.67;1.90;;;;;;;1.07;76.23;100089.69;4899960;29;20068;-63
2023/03/02 05:08:06;;;;;;;1.83;1.73;;;;;;;1.07;76.04;100090.56;4899513;29;20055;-64
2023/03/02 05:10:35;;;;;;;1.40;1.30;;;;;;;1.07;76.54;100100.59;4899533;29;20131;-63
2023/03/02 05:13:04;;;;;;;1.85;1.75;;;;;;;1.10;76.59;100095.72;4898511;29;20045;-63
2023/03/02 05:15:34;;;;;;;;;;;;;;;1.10;75.73;100100.75;4900019;29;20037;-63
2023/03/02 05:18:03;;;;;;;;;;;;;;;1.11;75.76;100099.94;4899693;29;20010;-64
2023/03/02 05:20:32;;;;;;;0.80;0.80;;;;;;;1.13;75.66;100100.84;4899411;29;20393;-64
2023/03/02 05:23:04;;;;;;;5.43;2.33;;;;;;;1.11;75.73;100096.56;4899623;29;20048;-63
2023/03/02 05:25:35;;;;;;;1.42;1.35;;;;;;;1.06;75.90;100098.00;4899304;29;20060;-63
2023/03/02 05:28:05;;;;;;;0.98;0.95;;;;;;;1.02;75.78;100107.09;4899154;29;20495;-63
2023/03/02 05:30:36;;;;;;;2.05;1.05;;;;;;;0.95;75.34;100105.09;4899481;29;20048;-63
2023/03/02 05:33:05;;;;;;;0.93;0.73;;;;;;;0.93;75.46;100106.69;4899192;29;20052;-64
2023/03/02 05:35:34;;;;;;;0.37;0.37;;;;;;;0.95;76.19;100109.25;4897154;29;20108;-63
2023/03/02 05:38:05;;;;;;;0.88;0.80;;;;;;;0.97;75.95;100113.56;4898971;29;20045;-63
2023/03/02 05:40:34;;;;;;;1.55;1.45;;;;;;;1.02;75.94;100108.72;4899024;29;20063;-64
2023/03/02 05:43:02;;;;;;;2.97;1.90;;;;;;;1.04;76.12;100110.50;4899196;29;20124;-64
2023/03/02 05:45:34;;;;;;;1.50;1.40;;;;;;;1.06;75.97;100108.06;4898934;29;20049;-63
2023/03/02 05:48:04;;;;;;;5.88;3.08;;;;;;;1.05;76.18;100111.38;4898805;29;20059;-63
2023/03/02 05:50:33;;;;;;;5.00;4.60;;;;;;;1.11;76.24;100112.50;4898802;29;20100;-63
2023/03/02 05:53:02;;;;;;;4.80;3.35;;;;;;;1.19;75.95;100116.22;4899024;29;20100;-63
2023/03/02 05:55:35;;;;;;;7.10;3.88;;;;;;;1.14;75.77;100122.69;4898701;29;20104;-63
2023/03/02 05:58:04;;;;;;;1.40;1.30;;;;;;;1.17;76.20;100115.28;4898754;29;20100;-63
2023/03/02 06:00:33;;;;;;;3.28;2.95;;;;;;;1.18;75.31;100119.50;4898920;29;20053;-64
2023/03/02 06:03:02;;;;;;;5.50;4.93;;;;;;;1.20;76.13;100117.91;4898680;29;20116;-64
2023/03/02 06:05:31;;;;;;;6.80;2.95;;;;;;;1.22;75.37;100121.34;4898592;29;20299;-63
2023/03/02 06:08:00;;;;;;;0.50;0.50;;;;;;;1.29;75.97;100127.53;4898576;29;20052;-63
2023/03/02 06:10:29;;;;;;;2.23;2.10;;;;;;;1.32;75.75;100127.63;4898504;29;20041;-63
2023/03/02 06:12:59;;;;;;;1.57;1.47;;;;;;;1.33;75.51;100115.16;4898510;29;20048;-63
2023/03/02 06:15:29;;;;;;;0.60;0.60;;;;;;;1.41;75.18;100128.03;4898566;29;20048;-64
2023/03/02 06:17:58;;;;;;;1.25;1.15;;;;;;;1.41;75.50;100122.16;4898346;29;20128;-63
2023/03/02 06:20:27;;;;;;;2.08;1.75;;;;;;;1.50;75.29;100132.59;4898461;29;20069;-64
2023/03/02 06:22:57;;;;;;;2.53;1.30;;;;;;;1.59;75.26;100130.47;4898375;29;20096;-64
2023/03/02 06:25:26;;;;;;;2.78;2.58;;;;;;;1.79;75.06;100134.66;4898395;29;20132;-64
2023/03/02 06:27:55;;;;;;;3.33;2.33;;;;;;;1.94;75.23;100140.34;4898179;29;20049;-64
2023/03/02 06:30:26;;;;;;;1.88;1.70;;;;;;;2.15;74.74;100132.78;4898691;29;20075;-64
2023/03/02 06:32:55;;;;;;;4.93;3.22;;;;;;;2.42;75.46;100134.72;4898645;29;20056;-64
2023/03/02 06:35:24;;;;;;;4.77;3.27;;;;;;;2.63;74.35;100140.59;4898367;29;20131;-64
2023/03/02 06:37:53;;;;;;;4.10;3.13;;;;;;;2.84;73.97;100145.56;4898268;29;20044;-64
2023/03/02 06:40:22;;;;;;;0.57;0.57;;;;;;;2.86;73.67;100118.75;4898242;29;20499;-64
2023/03/02 06:42:50;;;;;;;2.22;2.03;;;;;;;3.12;73.56;100142.41;4898625;29;20047;-64
2023/03/02 06:45:19;;;;;;;3.50;3.22;;;;;;;3.24;73.06;100141.16;4898232;29;20053;-64
2023/03/02 06:47:49;;;;;;;1.95;1.83;;;;;;;3.29;71.87;100136.28;4901429;29;20036;-64
2023/03/02 06:50:18;;;;;;;4.88;2.92;;;;;;;3.38;71.91;100141.66;4901966;29;20575;-64
2023/03/02 06:52:47;;;;;;;1.55;1.45;;;;;;;3.37;71.20;100109.66;4901899;29;20048;-64
2023/03/02 06:55:16;;;;;;;7.87;3.60;;;;;;;3.65;70.66;100137.53;4901004;29;20045;-64
2023/03/02 06:57:45;;;;;;;3.20;2.88;;;;;;;3.74;70.12;100134.50;4901917;29;20033;-63
2023/03/02 07:00:16;;;;;;;0.37;0.37;;;;;;;3.86;69.75;100130.69;4901864;29;20051;-64
2023/03/02 07:02:45;;;;;;;1.70;1.60;;;;;;;3.88;69.61;100126.56;4901803;29;20044;-65
2023/03/02 07:05:15;;;;;;;2.45;2.22;;;;;;;3.80;69.27;100117.88;4901799;29;20066;-64
2023/03/02 07:07:44;;;;;;;0.88;0.85;;;;;;;3.89;68.35;100123.22;4902087;29;20097;-63
2023/03/02 07:10:13;;;;;;;1.27;1.17;;;;;;;3.89;68.49;100125.75;4901937;29;20403;-64
2023/03/02 07:12:43;;;;;;;2.33;2.00;;;;;;;3.98;68.22;100131.09;4901650;29;20499;-64
2023/03/02 07:15:13;;;;;;;3.83;2.28;;;;;;;4.00;68.57;100131.16;4901540;29;20471;-64
2023/03/02 07:17:44;;;;;;;2.42;1.50;;;;;;;4.10;67.98;100129.78;4901500;29;20056;-64
2023/03/02 07:20:16;;;;;;;1.08;1.00;;;;;;;4.24;67.58;100131.06;4901578;29;20048;-63
2023/03/02 07:22:45;;;;;;;3.10;2.35;;;;;;;4.36;67.52;100137.38;4902027;29;20055;-63
2023/03/02 07:25:14;;;;;;;2.50;2.23;;;;;;;4.49;67.12;100128.47;4901517;29;20127;-64
2023/03/02 07:27:43;;;;;;;1.47;1.37;;;;;;;4.65;66.80;100135.75;4901350;29;20064;-64
2023/03/02 07:30:13;;;;;;;3.20;1.57;;;;;;;4.67;66.60;100129.91;4901712;29;20174;-64
2023/03/02 07:32:44;;;;;;;1.00;0.88;;;;;;;4.81;65.99;100131.97;4901320;29;20347;-64
2023/03/02 07:35:12;;;;;;;4.90;1.60;;;;;;;4.84;65.85;100135.47;4901218;29;20112;-64
2023/03/02 07:37:43;;;;;;;2.00;1.90;;;;;;;4.93;65.49;100133.19;4901136;29;20739;-64
2023/03/02 07:40:13;;;;;;;1.05;1.05;;;;;;;4.99;64.72;100130.81;4901158;29;20062;-64
2023/03/02 07:42:42;;;;;;;1.48;1.38;;;;;;;4.82;64.48;100132.03;4901452;29;20052;-64
2023/03/02 07:45:11;;;;;;;4.33;2.43;;;;;;;4.90;63.92;100129.72;4900216;29;20037;-64
2023/03/02 07:47:40;;;;;;;0.70;0.70;;;;;;;4.91;63.68;100128.91;4901318;29;20448;-64
2023/03/02 07:50:11;;;;;;;0.75;0.75;;;;;;;4.95;63.34;100131.56;4900908;29;20045;-64
2023/03/02 07:52:39;;;;;;;1.95;1.75;;;;;;;5.08;62.86;100127.72;4901512;29;20058;-64
2023/03/02 07:55:10;;;;;;;0.63;0.63;;;;;;;5.23;62.81;100129.00;4900897;29;20080;-64
2023/03/02 07:57:39;;;;;;;2.20;2.10;;;;;;;5.28;62.59;100127.44;4895302;29;20456;-64
2023/03/02 08:00:09;;;;;;;2.63;2.42;;;;;;;5.12;62.46;100132.91;4890106;29;20076;-64
2023/03/02 08:02:41;;;;;;;1.13;1.02;;;;;;;5.24;62.88;100132.38;4898840;29;20115;-64
2023/03/02 08:05:11;;;;;;;4.15;1.25;;;;;;;5.42;62.65;100126.13;4919829;29;20570;-64
2023/03/02 08:07:40;;;;;;;1.23;1.13;;;;;;;5.51;62.33;100119.63;4919801;29;20076;-64
2023/03/02 08:10:11;;;;;;;0.88;0.85;;;;;;;5.59;61.84;100126.59;4919737;29;20036;-64
2023/03/02 08:12:41;;;;;;;2.28;2.08;;;;;;;5.66;61.84;100132.69;4911524;29;20037;-64
2023/03/02 08:15:11;;;;;;;2.13;1.60;;;;;;;5.82;61.93;100128.03;4889870;29;20056;-64
2023/03/02 08:17:40;;;;;;;;;;;;;;;5.91;61.76;100127.44;4894833;29;20403;-65
2023/03/02 08:20:10;;;;;;;1.67;1.58;;;;;;;5.83;61.95;100119.63;4905584;29;20021;-64
2023/03/02 08:22:38;;;;;;;1.30;1.08;;;;;;;5.91;61.76;100132.50;4918851;29;20048;-64
2023/03/02 08:25:08;;;;;;;6.57;2.78;;;;;;;5.97;61.29;100122.53;4919193;29;20563;-64
2023/03/02 08:27:39;;;;;;;0.50;0.50;;;;;;;5.95;60.92;100129.25;4894627;29;20045;-64
2023/03/02 08:30:11;;;;;;;0.88;0.88;;;;;;;6.02;60.73;100133.66;4881169;29;20056;-64
2023/03/02 08:32:40;;;;;;;3.22;2.97;;;;;;;6.25;60.50;100129.97;4881518;29;20496;-64
2023/03/02 08:35:09;;;;;;;1.67;1.57;;;;;;;6.50;60.72;100127.16;4881548;29;20140;-65
2023/03/02 08:37:38;;;;;;;0.80;0.77;;;;;;;6.63;59.86;100128.31;4881146;29;20299;-64
2023/03/02 08:40:08;;;;;;;10.63;3.33;;;;;;;6.61;58.87;100125.75;4881358;29;20128;-64
2023/03/02 08:42:38;;;;;;;2.05;1.77;;;;;;;6.63;58.57;100129.16;4881509;29;20457;-64
2023/03/02 08:45:08;;;;;;;4.57;1.35;;;;;;;6.73;57.78;100120.94;4881322;29;20136;-64
2023/03/02 08:47:37;;;;;;;2.38;2.15;;;;;;;6.82;57.61;100119.41;4881283;29;20057;-64
2023/03/02 08:50:07;;;;;;;2.33;2.10;;;;;;;6.81;57.07;100088.13;4881160;29;20045;-65
2023/03/02 08:52:35;;;;;;;0.88;0.88;;;;;;;7.01;56.72;100111.34;4881072;29;20135;-65
2023/03/02 08:55:05;;;;;;;3.03;2.38;;;;;;;7.07;56.49;100108.97;4881628;29;20480;-64
2023/03/02 08:57:34;;;;;;;2.38;2.03;;;;;;;6.95;55.75;100103.63;4881239;29;20128;-65
2023/03/02 09:00:08;;;;;;;2.17;1.97;;;;;;;7.00;56.01;100104.59;4881005;29;20132;-64
2023/03/02 09:02:36;;;;;;;1.55;1.45;;;;;;;7.15;55.23;100109.97;4881207;29;20072;-65
2023/03/02 09:05:05;;;;;;;2.35;2.15;;;;;;;7.35;55.64;100103.59;4880904;29;20048;-65
2023/03/02 09:07:34;;;;;;;0.50;0.50;;;;;;;7.67;54.83;100102.50;4880825;29;20081;-65
2023/03/02 09:10:03;;;;;;;7.47;3.67;;;;;;;7.82;54.44;100097.66;4879900;29;20132;-65
2023/03/02 09:12:32;;;;;;;;;;;;;;;7.89;53.69;100099.47;4881135;29;20057;-65
2023/03/02 09:15:01;;;;;;;2.05;1.92;;;;;;;7.92;53.66;100094.44;4887035;29;20022;-65
2023/03/02 09:17:32;;;;;;;0.85;0.85;;;;;;;7.84;53.60;100090.09;4918176;29;20596;-65
2023/03/02 09:20:01;;;;;;;2.03;1.55;;;;;;;7.85;54.21;100100.25;4918084;29;20099;-65
2023/03/02 09:22:30;;;;;;;1.38;0.98;;;;;;;7.99;53.05;100096.25;4918103;29;20195;-65
2023/03/02 09:24:59;;;;;;;;;;;;;;;8.17;53.73;100089.75;4918424;29;20554;-65
2023/03/02 09:27:27;;;;;;;1.42;1.33;;;;;;;8.24;53.15;100089.88;4918360;29;19923;-65
2023/03/02 09:29:57;;;;;;;2.27;1.80;;;;;;;8.31;53.21;100085.75;4918210;29;20402;-65
2023/03/02 09:32:25;;;;;;;1.47;1.23;;;;;;;8.58;54.26;100074.31;4918608;29;20498;-65
2023/03/02 09:34:56;;;;;;;3.20;1.98;;;;;;;8.84;53.07;100082.25;4917608;29;20286;-66
2023/03/02 09:37:25;;;;;;;2.00;1.50;;;;;;;8.99;52.68;100079.91;4917895;29;20111;-66
2023/03/02 09:39:53;;;;;;;3.13;2.07;;;;;;;9.12;52.41;100079.19;4916606;29;20040;-66
2023/03/02 09:42:34;;;;;;;2.10;1.80;;;;;;;9.24;53.24;100076.78;4896360;29;20395;-65
2023/03/02 09:45:33;;;;;;;1.98;1.80;;;;;;;9.58;52.47;100083.09;4898736;29;20407;-66
2023/03/02 09:48:13;;;;;;;6.47;1.58;;;;;;;9.52;51.87;100085.59;4886369;29;20051;-66
2023/03/02 09:50:54;;;;;;;1.42;1.00;;;;;;;9.23;51.52;100080.19;4896386;29;20040;-65
2023/03/02 09:53:45;;;;;;;2.45;2.22;;;;;;;9.43;51.82;100081.25;4897722;29;20044;-66
2023/03/02 09:56:17;;;;;;;4.20;1.38;;;;;;;9.51;51.34;100080.47;4897808;29;20037;-65
